createdAt,value
2022-08-19T00:01:28.804Z,65.29
2022-08-19T00:03:58.192Z,66.02
2022-08-19T00:06:25.929Z,66.24
2022-08-19T00:08:53.702Z,66.52
2022-08-19T00:11:26.361Z,66.65
2022-08-19T00:13:57.466Z,66.68
2022-08-19T00:16:27.217Z,67.08
2022-08-19T00:18:56.270Z,67.09
2022-08-19T00:21:24.490Z,66.93
2022-08-19T00:23:52.250Z,66.97
2022-08-19T00:26:20.135Z,66.90
2022-08-19T00:28:49.149Z,66.54
2022-08-19T00:33:45.339Z,66.50
2022-08-19T00:36:13.546Z,66.97
2022-08-19T00:38:44.210Z,66.90
2022-08-19T00:41:15.489Z,67.16
2022-08-19T00:43:43.469Z,67.34
2022-08-19T00:46:12.457Z,67.38
2022-08-19T00:48:40.141Z,67.02
2022-08-19T00:51:08.088Z,67.21
2022-08-19T00:53:36.459Z,67.30
2022-08-19T00:56:07.194Z,67.31
2022-08-19T00:58:37.037Z,67.22
2022-08-19T01:01:06.356Z,67.06
2022-08-19T01:03:56.476Z,66.69
2022-08-19T01:06:23.283Z,66.94
2022-08-19T01:08:50.942Z,67.33
2022-08-19T01:11:18.833Z,67.50
2022-08-19T01:13:49.838Z,67.26
2022-08-19T01:16:21.170Z,67.30
2022-08-19T01:18:50.217Z,67.33
2022-08-19T01:21:23.956Z,67.01
2022-08-19T01:23:53.155Z,66.96
2022-08-19T01:26:23.686Z,66.61
2022-08-19T01:28:54.312Z,66.36
2022-08-19T01:31:32.704Z,66.24
2022-08-19T01:34:02.486Z,67.08
2022-08-19T01:36:32.577Z,67.00
2022-08-19T01:39:04.783Z,67.04
2022-08-19T01:41:32.816Z,67.06
2022-08-19T01:44:03.828Z,67.45
2022-08-19T01:46:46.147Z,67.03
2022-08-19T01:49:14.315Z,67.36
2022-08-19T01:51:41.975Z,66.86
2022-08-19T01:54:12.332Z,66.84
2022-08-19T01:56:40.188Z,67.23
2022-08-19T01:59:12.846Z,66.92
2022-08-19T02:01:40.716Z,67.43
2022-08-19T02:04:08.547Z,67.02
2022-08-19T02:06:36.940Z,67.05
2022-08-19T02:09:05.725Z,67.48
2022-08-19T02:11:37.078Z,67.13
2022-08-19T02:14:07.622Z,67.31
2022-08-19T02:16:36.008Z,67.90
2022-08-19T02:19:04.444Z,67.58
2022-08-19T02:21:32.706Z,68.16
2022-08-19T02:24:00.468Z,67.59
2022-08-19T02:26:28.397Z,68.52
2022-08-19T02:28:58.057Z,68.28
2022-08-19T02:31:28.780Z,68.70
2022-08-19T02:33:57.000Z,68.41
2022-08-19T02:36:26.130Z,68.45
2022-08-19T02:38:54.704Z,68.63
2022-08-19T02:41:27.037Z,68.93
2022-08-19T02:44:22.884Z,68.79
2022-08-19T02:46:45.800Z,68.78
2022-08-19T02:49:13.874Z,68.53
2022-08-19T02:51:43.674Z,68.82
2022-08-19T02:54:13.438Z,69.18
2022-08-19T02:56:43.232Z,68.25
2022-08-19T02:59:12.582Z,69.04
2022-08-19T03:01:42.787Z,68.53
2022-08-19T03:04:14.272Z,69.16
2022-08-19T03:06:44.081Z,68.72
2022-08-19T03:09:12.520Z,69.22
2022-08-19T03:11:40.692Z,69.29
2022-08-19T03:14:09.835Z,69.66
2022-08-19T03:16:46.388Z,70.08
2022-08-19T03:19:16.047Z,69.69
2022-08-19T03:21:45.819Z,69.92
2022-08-19T03:24:15.189Z,69.99
2022-08-19T03:26:44.297Z,69.94
2022-08-19T03:29:13.274Z,70.36
2022-08-19T03:31:51.257Z,70.14
2022-08-19T03:34:27.003Z,70.33
2022-08-19T03:36:55.334Z,70.67
2022-08-19T03:39:24.850Z,70.51
2022-08-19T03:42:31.931Z,70.16
2022-08-19T03:44:46.633Z,70.10
2022-08-19T03:47:17.241Z,69.96
2022-08-19T03:49:47.275Z,70.54
2022-08-19T03:52:15.118Z,70.14
2022-08-19T03:54:43.243Z,70.99
2022-08-19T03:57:11.291Z,70.34
2022-08-19T03:59:39.883Z,70.61
2022-08-19T04:02:11.125Z,70.67
2022-08-19T04:04:39.728Z,70.57
2022-08-19T04:07:09.272Z,70.44
2022-08-19T04:09:38.193Z,70.75
2022-08-19T04:12:07.542Z,71.71
2022-08-19T04:14:36.560Z,71.17
2022-08-19T04:17:06.378Z,71.47
2022-08-19T04:19:35.141Z,71.56
2022-08-19T04:22:02.865Z,71.32
2022-08-19T04:24:32.967Z,70.92
2022-08-19T04:27:01.686Z,71.58
2022-08-19T04:29:30.995Z,71.65
2022-08-19T04:31:59.644Z,71.49
2022-08-19T04:34:30.569Z,71.51
2022-08-19T04:37:00.507Z,71.61
2022-08-19T04:39:49.255Z,71.13
2022-08-19T04:42:35.118Z,71.61
2022-08-19T04:45:04.195Z,70.91
2022-08-19T04:47:49.400Z,71.21
2022-08-19T04:50:21.515Z,70.81
2022-08-19T04:52:52.082Z,71.28
2022-08-19T04:55:21.371Z,71.03
2022-08-19T04:57:49.841Z,70.84
2022-08-19T05:00:17.697Z,70.76
2022-08-19T05:02:45.255Z,70.68
2022-08-19T05:05:13.460Z,70.48
2022-08-19T05:07:42.026Z,69.59
2022-08-19T05:10:10.321Z,69.48
2022-08-19T05:12:39.271Z,69.10
2022-08-19T05:15:09.321Z,68.80
2022-08-19T05:17:38.904Z,68.51
2022-08-19T05:20:27.395Z,68.09
2022-08-19T05:22:55.320Z,68.41
2022-08-19T05:25:25.570Z,67.86
2022-08-19T05:27:54.637Z,67.10
2022-08-19T05:30:24.430Z,67.00
2022-08-19T05:33:13.052Z,66.99
2022-08-19T05:35:42.020Z,66.43
2022-08-19T05:38:12.087Z,66.35
2022-08-19T05:40:40.280Z,65.98
2022-08-19T05:43:10.228Z,65.53
2022-08-19T05:45:41.298Z,65.00
2022-08-19T05:48:11.948Z,64.56
2022-08-19T05:50:40.832Z,63.31
2022-08-19T05:53:09.823Z,62.49
2022-08-19T05:55:39.176Z,61.88
2022-08-19T05:58:08.420Z,60.91
2022-08-19T06:00:38.821Z,59.91
2022-08-19T06:03:12.446Z,59.64
2022-08-19T06:05:42.278Z,58.06
2022-08-19T06:08:19.330Z,57.44
2022-08-19T06:10:47.465Z,56.31
2022-08-19T06:13:15.123Z,55.71
2022-08-19T06:15:45.200Z,55.13
2022-08-19T06:18:12.916Z,53.86
2022-08-19T06:20:55.423Z,53.35
2022-08-19T06:23:24.289Z,53.48
2022-08-19T06:25:52.159Z,54.80
2022-08-19T06:28:19.996Z,55.98
2022-08-19T06:30:49.211Z,57.89
2022-08-19T06:33:16.866Z,58.55
2022-08-19T06:35:46.385Z,59.11
2022-08-19T06:38:17.067Z,58.81
2022-08-19T06:43:12.317Z,58.79
2022-08-19T06:45:41.925Z,57.35
2022-08-19T06:48:11.615Z,56.69
2022-08-19T06:50:41.020Z,57.00
2022-08-19T06:53:08.903Z,56.54
2022-08-19T06:55:36.611Z,54.29
2022-08-19T06:58:05.060Z,51.91
2022-08-19T07:00:34.946Z,50.09
2022-08-19T07:03:06.398Z,49.40
2022-08-19T07:05:45.941Z,50.17
2022-08-19T07:08:14.367Z,50.10
2022-08-19T07:10:45.798Z,49.35
2022-08-19T07:13:13.519Z,48.52
2022-08-19T07:15:42.232Z,48.06
2022-08-19T07:18:11.972Z,46.84
2022-08-19T07:20:42.629Z,48.26
2022-08-19T07:23:15.928Z,48.71
2022-08-19T07:25:44.822Z,50.54
2022-08-19T07:28:24.787Z,50.58
2022-08-19T07:30:53.207Z,51.68
2022-08-19T07:33:21.188Z,50.50
2022-08-19T07:35:50.861Z,49.64
2022-08-19T07:38:18.952Z,48.43
2022-08-19T07:40:47.685Z,47.00
2022-08-19T07:43:17.347Z,46.25
2022-08-19T07:45:46.133Z,45.11
2022-08-19T07:48:13.904Z,46.72
2022-08-19T07:50:41.661Z,48.08
2022-08-19T07:53:10.795Z,45.80
2022-08-19T07:55:42.262Z,43.63
2022-08-19T07:58:12.124Z,42.74
2022-08-19T08:00:39.884Z,42.01
2022-08-19T08:03:07.715Z,42.03
2022-08-19T08:05:53.158Z,41.52
2022-08-19T08:08:44.216Z,39.76
2022-08-19T08:11:20.057Z,38.57
2022-08-19T08:14:01.309Z,39.10
2022-08-19T08:16:33.284Z,39.28
2022-08-19T08:19:02.823Z,38.54
2022-08-19T08:21:35.695Z,38.29
2022-08-19T08:24:05.530Z,39.83
2022-08-19T08:26:33.664Z,40.49
2022-08-19T08:29:02.398Z,40.92
2022-08-19T08:31:40.719Z,40.79
2022-08-19T08:34:09.479Z,41.38
2022-08-19T08:36:41.703Z,42.19
2022-08-19T08:39:11.373Z,42.49
2022-08-19T08:41:47.332Z,42.34
2022-08-19T08:44:21.884Z,42.67
2022-08-19T08:46:53.197Z,44.52
2022-08-19T08:49:30.354Z,45.37
2022-08-19T08:52:04.065Z,46.12
2022-08-19T08:54:39.184Z,46.51
2022-08-19T08:57:12.728Z,47.04
2022-08-19T08:59:43.632Z,46.88
2022-08-19T09:02:11.501Z,46.54
2022-08-19T09:04:40.248Z,46.04
2022-08-19T09:07:36.032Z,46.26
2022-08-19T09:10:15.944Z,46.13
2022-08-19T09:12:54.895Z,45.60
2022-08-19T09:15:33.714Z,44.22
2022-08-19T09:18:07.077Z,43.04
2022-08-19T09:20:35.067Z,42.91
2022-08-19T09:23:02.922Z,42.34
2022-08-19T09:25:35.296Z,42.01
2022-08-19T09:28:05.638Z,43.68
2022-08-19T09:30:43.520Z,44.83
2022-08-19T09:33:11.406Z,45.59
2022-08-19T09:35:49.807Z,45.93
2022-08-19T09:38:21.467Z,45.81
2022-08-19T09:40:51.070Z,45.47
2022-08-19T09:43:32.980Z,46.25
2022-08-19T09:46:02.717Z,48.01
2022-08-19T09:48:30.809Z,48.35
2022-08-19T09:51:06.157Z,48.47
2022-08-19T09:53:34.177Z,48.53
2022-08-19T09:56:04.050Z,49.19
2022-08-19T09:58:32.139Z,48.37
2022-08-19T10:01:02.411Z,47.46
2022-08-19T10:03:32.179Z,47.30
2022-08-19T10:06:02.231Z,47.03
2022-08-19T10:08:33.944Z,47.01
2022-08-19T10:11:27.895Z,47.66
2022-08-19T10:13:52.415Z,47.09
2022-08-19T10:16:26.130Z,46.92
2022-08-19T10:18:58.830Z,47.70
2022-08-19T10:21:29.109Z,46.36
2022-08-19T10:24:04.801Z,46.54
2022-08-19T10:26:38.087Z,46.15
2022-08-19T10:29:09.261Z,45.58
2022-08-19T10:32:01.216Z,47.05
2022-08-19T10:34:28.186Z,46.44
2022-08-19T10:37:00.498Z,46.26
2022-08-19T10:39:32.677Z,44.33
2022-08-19T10:42:13.881Z,43.94
2022-08-19T10:44:42.515Z,42.63
2022-08-19T10:47:17.546Z,42.22
2022-08-19T10:50:11.951Z,43.10
2022-08-19T10:52:40.275Z,44.33
2022-08-19T10:55:36.904Z,45.03
2022-08-19T10:58:06.209Z,45.23
2022-08-19T11:00:34.606Z,46.25
2022-08-19T11:03:02.365Z,46.42
2022-08-19T11:05:30.336Z,45.84
2022-08-19T11:08:23.866Z,43.86
2022-08-19T11:10:54.514Z,43.82
2022-08-19T11:13:24.304Z,43.80
2022-08-19T11:16:00.890Z,43.75
2022-08-19T11:18:31.577Z,43.77
2022-08-19T11:21:07.970Z,43.00
2022-08-19T11:23:35.816Z,43.60
2022-08-19T11:26:03.662Z,42.95
2022-08-19T11:28:32.665Z,42.75
2022-08-19T11:31:00.516Z,41.83
2022-08-19T11:33:28.414Z,41.33
2022-08-19T11:35:56.342Z,41.27
2022-08-19T11:38:24.008Z,40.45
2022-08-19T11:40:57.349Z,41.17
2022-08-19T11:43:25.173Z,42.29
2022-08-19T11:45:54.363Z,41.63
2022-08-19T11:48:23.378Z,41.98
2022-08-19T11:50:51.196Z,41.15
2022-08-19T11:53:20.253Z,40.82
2022-08-19T11:55:49.075Z,39.73
2022-08-19T11:58:19.334Z,38.80
2022-08-19T12:00:47.426Z,39.76
2022-08-19T12:03:16.633Z,40.74
2022-08-19T12:05:44.328Z,41.15
2022-08-19T12:08:13.555Z,41.82
2022-08-19T12:10:43.080Z,42.31
2022-08-19T12:13:11.305Z,41.81
2022-08-19T12:15:41.329Z,41.26
2022-08-19T12:18:10.287Z,41.40
2022-08-19T12:20:41.777Z,40.51
2022-08-19T12:23:11.170Z,39.38
2022-08-19T12:25:39.409Z,38.28
2022-08-19T12:28:07.016Z,38.34
2022-08-19T12:30:34.637Z,39.02
2022-08-19T12:33:02.274Z,40.76
2022-08-19T12:35:31.440Z,40.21
2022-08-19T12:38:00.913Z,40.31
2022-08-19T12:40:28.947Z,39.76
2022-08-19T12:42:56.653Z,39.10
2022-08-19T12:45:24.499Z,38.84
2022-08-19T12:47:54.783Z,37.00
2022-08-19T12:50:23.364Z,38.38
2022-08-19T12:52:51.175Z,39.26
2022-08-19T12:55:20.461Z,39.54
2022-08-19T12:57:49.621Z,38.79
2022-08-19T13:00:21.972Z,38.37
2022-08-19T13:02:52.249Z,37.62
2022-08-19T13:05:24.141Z,37.60
2022-08-19T13:07:54.178Z,37.71
2022-08-19T13:10:25.636Z,38.60
2022-08-19T13:12:54.074Z,39.07
2022-08-19T13:15:24.537Z,39.90
2022-08-19T13:17:54.742Z,39.54
2022-08-19T13:20:23.532Z,39.83
2022-08-19T13:22:51.725Z,39.19
2022-08-19T13:25:20.866Z,38.39
2022-08-19T13:27:51.688Z,37.44
2022-08-19T13:30:39.187Z,36.65
2022-08-19T13:33:15.918Z,36.48
2022-08-19T13:35:46.609Z,35.66
2022-08-19T13:38:15.535Z,34.77
2022-08-19T13:40:43.383Z,35.87
2022-08-19T13:43:17.602Z,35.66
2022-08-19T13:45:55.024Z,35.24
2022-08-19T13:48:23.409Z,35.37
2022-08-19T13:50:51.248Z,36.69
2022-08-19T13:53:19.675Z,37.06
2022-08-19T13:55:47.564Z,37.45
2022-08-19T13:58:16.861Z,38.07
2022-08-19T14:00:47.957Z,37.88
2022-08-19T14:03:16.382Z,37.82
2022-08-19T14:05:44.183Z,37.82
2022-08-19T14:08:13.192Z,37.02
2022-08-19T14:10:43.631Z,37.54
2022-08-19T14:13:11.228Z,36.55
2022-08-19T14:15:40.645Z,36.22
2022-08-19T14:18:08.443Z,36.23
2022-08-19T14:20:36.555Z,36.34
2022-08-19T14:23:06.033Z,36.27
2022-08-19T14:25:35.619Z,35.96
2022-08-19T14:28:03.869Z,35.81
2022-08-19T14:30:34.153Z,36.75
2022-08-19T14:33:04.475Z,36.39
2022-08-19T14:35:35.544Z,35.77
2022-08-19T14:38:04.504Z,35.73
2022-08-19T14:40:32.787Z,36.31
2022-08-19T14:43:05.729Z,36.23
2022-08-19T14:45:36.530Z,37.14
2022-08-19T14:48:06.209Z,37.30
2022-08-19T14:50:34.485Z,37.37
2022-08-19T14:53:09.119Z,37.10
2022-08-19T14:55:43.767Z,37.19
2022-08-19T14:58:29.282Z,37.30
2022-08-19T15:01:00.377Z,36.85
2022-08-19T15:03:30.752Z,37.22
2022-08-19T15:05:58.931Z,37.09
2022-08-19T15:08:27.881Z,36.53
2022-08-19T15:10:55.762Z,36.43
2022-08-19T15:13:23.760Z,35.95
2022-08-19T15:15:52.552Z,35.53
2022-08-19T15:18:21.359Z,35.97
2022-08-19T15:20:50.833Z,35.88
2022-08-19T15:23:21.263Z,36.86
2022-08-19T15:25:49.210Z,35.11
2022-08-19T15:28:17.369Z,35.42
2022-08-19T15:30:45.363Z,35.87
2022-08-19T15:33:15.098Z,35.46
2022-08-19T15:35:43.108Z,34.60
2022-08-19T15:38:13.811Z,35.02
2022-08-19T15:40:42.497Z,34.65
2022-08-19T15:43:10.204Z,35.31
2022-08-19T15:45:40.187Z,35.04
2022-08-19T15:48:07.884Z,35.50
2022-08-19T15:50:35.778Z,35.62
2022-08-19T15:53:07.145Z,35.28
2022-08-19T15:55:38.884Z,35.19
2022-08-19T15:58:28.817Z,34.22
2022-08-19T16:01:15.967Z,34.71
2022-08-19T16:04:01.649Z,34.53
2022-08-19T16:06:31.333Z,35.39
2022-08-19T16:09:01.827Z,35.26
2022-08-19T16:11:38.960Z,35.54
2022-08-19T16:14:09.160Z,34.95
2022-08-19T16:16:38.576Z,34.95
2022-08-19T16:19:10.323Z,35.21
2022-08-19T16:21:41.584Z,35.50
2022-08-19T16:24:12.054Z,35.49
2022-08-19T16:26:42.807Z,35.00
2022-08-19T16:29:12.243Z,34.70
2022-08-19T16:31:43.324Z,35.05
2022-08-19T16:34:12.063Z,35.22
2022-08-19T16:36:41.672Z,34.84
2022-08-19T16:39:11.371Z,34.96
2022-08-19T16:41:43.813Z,35.18
2022-08-19T16:44:14.315Z,35.63
2022-08-19T16:46:42.545Z,35.36
2022-08-19T16:49:11.991Z,35.07
2022-08-19T16:51:40.175Z,36.25
2022-08-19T16:54:08.441Z,35.30
2022-08-19T16:56:36.775Z,34.97
2022-08-19T16:59:06.602Z,35.57
2022-08-19T17:01:34.329Z,35.74
2022-08-19T17:04:02.031Z,35.45
2022-08-19T17:06:32.045Z,35.50
2022-08-19T17:09:01.954Z,36.05
2022-08-19T17:11:33.034Z,35.99
2022-08-19T17:14:01.753Z,35.69
2022-08-19T17:16:34.147Z,36.16
2022-08-19T17:19:04.917Z,36.04
2022-08-19T17:21:34.355Z,36.02
2022-08-19T17:24:04.468Z,35.84
2022-08-19T17:26:32.438Z,36.04
2022-08-19T17:29:01.365Z,36.06
2022-08-19T17:31:32.328Z,36.12
2022-08-19T17:34:00.954Z,35.99
2022-08-19T17:36:34.469Z,35.81
2022-08-19T17:39:04.108Z,35.56
2022-08-19T17:41:34.044Z,36.13
2022-08-19T17:44:04.384Z,36.49
2022-08-19T17:46:34.036Z,36.12
2022-08-19T17:49:01.839Z,35.99
2022-08-19T17:51:41.955Z,36.63
2022-08-19T17:54:11.940Z,36.30
2022-08-19T17:56:39.694Z,36.51
2022-08-19T17:59:11.821Z,36.56
2022-08-19T18:01:53.827Z,36.54
2022-08-19T18:04:24.557Z,37.16
2022-08-19T18:06:54.423Z,37.27
2022-08-19T18:09:25.613Z,37.51
2022-08-19T18:11:55.391Z,37.67
2022-08-19T18:14:32.146Z,38.27
2022-08-19T18:17:06.055Z,38.26
2022-08-19T18:19:41.314Z,38.59
2022-08-19T18:22:11.686Z,38.83
2022-08-19T18:24:41.234Z,39.24
2022-08-19T18:27:11.311Z,39.33
2022-08-19T18:29:40.145Z,39.54
2022-08-19T18:32:13.164Z,39.90
2022-08-19T18:34:41.836Z,40.36
2022-08-19T18:37:09.762Z,39.89
2022-08-19T18:39:55.612Z,40.14
2022-08-19T18:42:41.338Z,40.19
2022-08-19T18:45:27.680Z,40.55
2022-08-19T18:48:18.486Z,41.10
2022-08-19T18:50:54.928Z,40.68
2022-08-19T18:53:23.254Z,40.87
2022-08-19T18:55:53.884Z,41.29
2022-08-19T18:58:26.095Z,41.48
2022-08-19T19:00:56.732Z,40.80
2022-08-19T19:03:26.640Z,41.49
2022-08-19T19:05:54.636Z,42.01
2022-08-19T19:08:26.875Z,42.00
2022-08-19T19:10:56.684Z,41.90
2022-08-19T19:13:24.408Z,42.03
2022-08-19T19:15:52.119Z,42.31
2022-08-19T19:18:20.458Z,42.74
2022-08-19T19:20:49.552Z,42.40
2022-08-19T19:23:18.228Z,42.76
2022-08-19T19:25:50.932Z,42.30
2022-08-19T19:28:25.318Z,42.34
2022-08-19T19:30:54.145Z,42.33
2022-08-19T19:33:21.814Z,42.50
2022-08-19T19:35:50.891Z,42.06
2022-08-19T19:38:18.580Z,42.85
2022-08-19T19:40:46.497Z,42.34
2022-08-19T19:43:18.349Z,42.56
2022-08-19T19:45:47.545Z,43.01
2022-08-19T19:48:15.547Z,42.95
2022-08-19T19:50:43.990Z,43.17
2022-08-19T19:53:15.040Z,43.72
2022-08-19T19:55:43.494Z,43.86
2022-08-19T19:58:11.251Z,43.61
2022-08-19T20:00:39.342Z,44.48
2022-08-19T20:03:07.221Z,44.55
2022-08-19T20:05:34.904Z,44.60
2022-08-19T20:08:20.008Z,45.06
2022-08-19T20:10:49.052Z,45.14
2022-08-19T20:13:16.706Z,45.32
2022-08-19T20:15:44.575Z,45.17
2022-08-19T20:18:14.304Z,44.59
2022-08-19T20:20:42.977Z,45.00
2022-08-19T20:23:10.729Z,45.35
2022-08-19T20:25:39.857Z,45.60
2022-08-19T20:28:09.179Z,45.46
2022-08-19T20:30:37.787Z,45.63
2022-08-19T20:33:10.491Z,45.95
2022-08-19T20:35:39.019Z,45.54
2022-08-19T20:38:08.670Z,46.22
2022-08-19T20:40:37.772Z,46.44
2022-08-19T20:43:10.186Z,46.11
2022-08-19T20:45:38.004Z,46.67
2022-08-19T20:48:07.839Z,46.81
2022-08-19T20:50:37.646Z,46.74
2022-08-19T20:53:10.978Z,46.69
2022-08-19T20:55:38.585Z,47.31
2022-08-19T20:58:06.406Z,47.30
2022-08-19T21:00:35.439Z,47.54
2022-08-19T21:03:03.594Z,47.26
2022-08-19T21:05:31.148Z,47.51
2022-08-19T21:07:59.164Z,48.01
2022-08-19T21:10:27.506Z,47.99
2022-08-19T21:12:55.344Z,48.50
2022-08-19T21:15:24.549Z,48.09
2022-08-19T21:17:53.615Z,48.62
2022-08-19T21:20:21.642Z,48.70
2022-08-19T21:22:49.308Z,49.15
2022-08-19T21:25:17.555Z,48.98
2022-08-19T21:27:45.131Z,48.96
2022-08-19T21:30:14.425Z,48.66
2022-08-19T21:32:42.004Z,48.99
2022-08-19T21:35:11.113Z,48.95
2022-08-19T21:37:38.997Z,49.26
2022-08-19T21:40:08.224Z,49.16
2022-08-19T21:42:37.681Z,49.61
2022-08-19T21:45:06.360Z,49.67
2022-08-19T21:47:34.009Z,49.62
2022-08-19T21:50:01.717Z,49.91
2022-08-19T21:52:30.973Z,49.59
2022-08-19T21:54:58.995Z,50.11
2022-08-19T21:57:28.427Z,50.62
2022-08-19T21:59:56.160Z,50.70
2022-08-19T22:02:23.869Z,50.90
2022-08-19T22:04:52.969Z,50.94
2022-08-19T22:07:21.851Z,51.30
2022-08-19T22:09:52.620Z,51.44
2022-08-19T22:12:23.327Z,51.66
2022-08-19T22:14:52.015Z,51.89
2022-08-19T22:17:20.337Z,52.06
2022-08-19T22:19:48.173Z,52.10
2022-08-19T22:22:21.599Z,52.88
2022-08-19T22:24:50.966Z,52.59
2022-08-19T22:27:19.326Z,53.05
2022-08-19T22:29:47.302Z,53.29
2022-08-19T22:32:28.225Z,53.01
2022-08-19T22:34:59.637Z,53.59
2022-08-19T22:37:28.852Z,53.90
2022-08-19T22:39:58.053Z,54.29
2022-08-19T22:42:31.876Z,54.47
2022-08-19T22:45:01.619Z,54.39
2022-08-19T22:47:32.265Z,54.38
2022-08-19T22:50:08.318Z,54.32
2022-08-19T22:52:47.894Z,54.40
2022-08-19T22:55:23.591Z,54.67
2022-08-19T22:57:51.176Z,55.26
2022-08-19T23:00:19.737Z,54.80
2022-08-19T23:02:52.380Z,55.00
2022-08-19T23:05:22.863Z,55.04
2022-08-19T23:07:52.186Z,55.27
2022-08-19T23:10:27.572Z,55.93
2022-08-19T23:12:58.127Z,56.06
2022-08-19T23:15:28.862Z,56.15
2022-08-19T23:17:58.607Z,56.63
2022-08-19T23:20:28.481Z,56.79
2022-08-19T23:22:57.264Z,57.03
2022-08-19T23:25:30.276Z,57.69
2022-08-19T23:28:26.887Z,57.66
2022-08-19T23:30:55.219Z,57.78
2022-08-19T23:33:26.494Z,58.06
2022-08-19T23:36:18.477Z,58.15
2022-08-19T23:38:48.764Z,57.98
2022-08-19T23:41:20.230Z,58.39
2022-08-19T23:43:48.119Z,58.59
2022-08-19T23:46:27.536Z,59.01
2022-08-19T23:48:56.335Z,59.38
2022-08-19T23:51:26.611Z,59.87
2022-08-19T23:53:54.573Z,60.04
2022-08-19T23:56:23.689Z,60.38
2022-08-19T23:58:51.461Z,60.84
